createdAt,value
2018-03-26T00:01:55.416Z,63.00
2018-03-26T00:04:26.058Z,52.47
2018-03-26T00:06:56.784Z,55.20
2018-03-26T00:09:27.490Z,54.67
2018-03-26T00:11:58.027Z,51.97
2018-03-26T00:14:28.587Z,50.93
2018-03-26T00:17:00.162Z,54.13
2018-03-26T00:19:30.750Z,57.63
2018-03-26T00:22:01.671Z,52.10
2018-03-26T00:24:32.166Z,49.87
2018-03-26T00:27:02.679Z,52.30
2018-03-26T00:29:32.980Z,52.47
2018-03-26T00:32:03.893Z,51.13
2018-03-26T00:34:34.435Z,54.47
2018-03-26T00:37:05.065Z,49.03
2018-03-26T00:39:36.445Z,48.43
2018-03-26T00:42:07.264Z,49.47
2018-03-26T00:44:37.789Z,46.20
2018-03-26T00:47:08.425Z,46.50
2018-03-26T00:49:39.829Z,55.63
2018-03-26T00:52:10.274Z,47.50
2018-03-26T00:54:40.834Z,49.27
2018-03-26T00:57:12.684Z,41.17
2018-03-26T00:59:43.629Z,42.83
2018-03-26T01:02:14.739Z,42.27
2018-03-26T01:04:45.653Z,44.20
2018-03-26T01:07:16.272Z,48.50
2018-03-26T01:09:46.671Z,42.53
2018-03-26T01:12:17.441Z,43.53
2018-03-26T01:14:48.088Z,43.57
2018-03-26T01:17:18.637Z,52.43
2018-03-26T01:19:49.522Z,46.33
2018-03-26T01:22:20.389Z,45.37
2018-03-26T01:24:50.823Z,48.80
2018-03-26T01:27:20.679Z,47.47
2018-03-26T01:29:51.182Z,51.83
2018-03-26T01:32:21.751Z,50.80
2018-03-26T01:34:52.027Z,48.97
2018-03-26T01:37:22.596Z,45.53
2018-03-26T01:39:53.664Z,52.20
2018-03-26T01:42:26.821Z,63.33
2018-03-26T01:44:57.261Z,51.47
2018-03-26T01:47:27.568Z,56.23
2018-03-26T01:49:58.485Z,50.23
2018-03-26T01:52:28.936Z,52.77
2018-03-26T01:54:59.385Z,47.97
2018-03-26T01:57:29.674Z,51.83
2018-03-26T02:00:00.115Z,47.37
2018-03-26T02:02:32.361Z,47.17
2018-03-26T02:05:03.091Z,47.40
2018-03-26T02:07:33.787Z,41.80
2018-03-26T02:10:04.514Z,36.47
2018-03-26T02:12:35.022Z,38.83
2018-03-26T02:15:05.850Z,32.03
2018-03-26T02:17:36.186Z,31.07
2018-03-26T02:20:06.588Z,32.90
2018-03-26T02:22:37.639Z,31.03
2018-03-26T02:25:08.275Z,28.83
2018-03-26T02:27:38.874Z,29.63
2018-03-26T02:30:09.670Z,31.63
2018-03-26T02:32:40.391Z,32.77
2018-03-26T02:35:11.031Z,30.20
2018-03-26T02:37:41.329Z,32.83
2018-03-26T02:40:11.851Z,31.03
2018-03-26T02:42:41.881Z,32.90
2018-03-26T02:45:12.622Z,32.23
2018-03-26T02:47:43.159Z,34.30
2018-03-26T02:50:15.204Z,38.80
2018-03-26T02:52:45.747Z,38.97
2018-03-26T02:55:16.369Z,36.43
2018-03-26T02:57:47.043Z,35.17
2018-03-26T03:00:18.151Z,36.07
2018-03-26T03:02:47.960Z,35.07
2018-03-26T03:05:19.015Z,36.20
2018-03-26T03:07:48.996Z,36.37
2018-03-26T03:10:19.822Z,35.97
2018-03-26T03:12:49.773Z,37.13
2018-03-26T03:15:20.893Z,37.90
2018-03-26T03:17:50.933Z,33.20
2018-03-26T03:20:21.670Z,34.07
2018-03-26T03:22:52.508Z,32.30
2018-03-26T03:25:23.444Z,34.10
2018-03-26T03:27:54.398Z,35.87
2018-03-26T03:30:25.204Z,34.37
2018-03-26T03:32:55.835Z,36.77
2018-03-26T03:35:26.773Z,36.23
2018-03-26T03:37:57.670Z,32.73
2018-03-26T03:40:28.359Z,33.87
2018-03-26T03:42:59.665Z,32.77
2018-03-26T03:45:29.615Z,33.07
2018-03-26T03:48:00.151Z,38.33
2018-03-26T03:50:31.320Z,36.63
2018-03-26T03:53:02.958Z,33.13
2018-03-26T03:55:33.273Z,35.07
2018-03-26T03:58:04.035Z,34.37
2018-03-26T04:00:34.810Z,34.30
2018-03-26T04:03:07.015Z,29.27
2018-03-26T04:05:37.332Z,28.30
2018-03-26T04:08:08.342Z,32.23
2018-03-26T04:10:39.221Z,32.77
2018-03-26T04:13:10.647Z,28.97
2018-03-26T04:15:41.173Z,29.20
2018-03-26T04:18:11.975Z,30.53
2018-03-26T04:20:42.558Z,32.57
2018-03-26T04:23:13.509Z,29.30
2018-03-26T04:25:43.614Z,29.00
2018-03-26T04:28:14.169Z,28.83
2018-03-26T04:30:45.034Z,29.17
2018-03-26T04:33:15.516Z,28.40
2018-03-26T04:35:45.795Z,24.53
2018-03-26T04:38:16.734Z,25.00
2018-03-26T04:40:47.489Z,23.63
2018-03-26T04:43:17.816Z,24.50
2018-03-26T04:45:49.494Z,25.50
2018-03-26T04:48:20.012Z,19.23
2018-03-26T04:50:50.754Z,23.20
2018-03-26T04:53:21.432Z,23.27
2018-03-26T04:55:51.823Z,20.00
2018-03-26T04:58:22.793Z,21.93
2018-03-26T05:00:53.344Z,23.97
2018-03-26T05:03:24.015Z,21.07
2018-03-26T05:05:54.439Z,23.33
2018-03-26T05:08:25.116Z,22.93
2018-03-26T05:10:55.468Z,23.30
2018-03-26T05:13:26.427Z,37.90
2018-03-26T05:15:56.741Z,26.20
2018-03-26T05:18:28.017Z,25.43
2018-03-26T05:20:59.227Z,26.83
2018-03-26T05:23:30.054Z,25.63
2018-03-26T05:26:00.889Z,28.53
2018-03-26T05:28:32.497Z,25.47
2018-03-26T05:31:03.894Z,27.77
2018-03-26T05:33:34.122Z,26.13
2018-03-26T05:36:03.877Z,25.73
2018-03-26T05:38:33.842Z,26.93
2018-03-26T05:41:05.167Z,27.30
2018-03-26T05:43:36.120Z,29.80
2018-03-26T05:46:06.961Z,26.63
2018-03-26T05:48:38.331Z,31.43
2018-03-26T05:51:08.182Z,28.60
2018-03-26T05:53:38.909Z,28.80
2018-03-26T05:56:09.726Z,28.63
2018-03-26T05:58:40.241Z,27.97
2018-03-26T06:01:11.648Z,33.90
2018-03-26T06:03:41.726Z,29.97
2018-03-26T06:06:11.645Z,26.73
2018-03-26T06:08:42.283Z,28.07
2018-03-26T06:11:13.074Z,29.53
2018-03-26T06:13:43.826Z,28.20
2018-03-26T06:16:14.775Z,28.37
2018-03-26T06:18:45.442Z,28.63
2018-03-26T06:21:15.950Z,26.87
2018-03-26T06:23:46.685Z,27.37
2018-03-26T06:26:17.108Z,29.50
2018-03-26T06:28:47.768Z,27.67
2018-03-26T06:31:18.833Z,28.13
2018-03-26T06:33:49.204Z,33.90
2018-03-26T06:36:36.222Z,34.60
2018-03-26T06:39:12.468Z,33.17
2018-03-26T06:41:43.696Z,34.93
2018-03-26T06:44:14.428Z,34.23
2018-03-26T06:46:45.402Z,34.60
2018-03-26T06:49:15.638Z,33.77
2018-03-26T06:51:46.342Z,27.47
2018-03-26T06:54:16.791Z,27.40
2018-03-26T06:56:47.760Z,37.40
2018-03-26T06:59:18.439Z,27.13
2018-03-26T07:01:49.348Z,26.10
2018-03-26T07:04:20.304Z,27.77
2018-03-26T07:06:51.562Z,27.40
2018-03-26T07:09:21.943Z,25.87
2018-03-26T07:11:52.441Z,29.10
2018-03-26T07:14:23.342Z,29.93
2018-03-26T07:16:53.884Z,29.03
2018-03-26T07:19:24.334Z,33.70
2018-03-26T07:21:54.890Z,33.93
2018-03-26T07:24:26.024Z,60.10
2018-03-26T07:26:56.919Z,65.30
2018-03-26T07:29:27.258Z,74.30
2018-03-26T07:31:57.849Z,70.40
2018-03-26T07:34:29.304Z,77.30
2018-03-26T07:36:59.996Z,70.47
2018-03-26T07:39:30.799Z,97.73
2018-03-26T07:42:01.415Z,88.73
2018-03-26T07:44:32.086Z,86.77
2018-03-26T07:47:02.524Z,85.77
2018-03-26T07:49:33.324Z,75.43
2018-03-26T07:52:03.873Z,82.63
2018-03-26T07:54:34.727Z,80.53
2018-03-26T07:57:05.472Z,83.73
2018-03-26T07:59:35.477Z,84.80
2018-03-26T08:02:06.031Z,82.67
2018-03-26T08:04:37.040Z,76.13
2018-03-26T08:07:07.783Z,86.40
2018-03-26T08:09:38.481Z,80.90
2018-03-26T08:12:09.940Z,88.07
2018-03-26T08:14:40.583Z,88.77
2018-03-26T08:17:11.420Z,69.43
2018-03-26T08:19:42.111Z,75.40
2018-03-26T08:22:13.249Z,80.63
2018-03-26T08:24:44.182Z,84.67
2018-03-26T08:27:14.665Z,77.90
2018-03-26T08:29:45.149Z,74.50
2018-03-26T08:32:16.210Z,85.57
2018-03-26T08:34:47.078Z,69.87
2018-03-26T08:37:17.533Z,66.27
2018-03-26T08:39:48.965Z,65.53
2018-03-26T08:42:19.648Z,70.30
2018-03-26T08:44:50.539Z,61.57
2018-03-26T08:47:21.133Z,60.57
2018-03-26T08:49:51.026Z,63.17
2018-03-26T08:52:22.012Z,59.70
2018-03-26T08:54:52.827Z,64.47
2018-03-26T08:57:24.000Z,58.27
2018-03-26T08:59:54.996Z,55.30
2018-03-26T09:02:26.098Z,63.77
2018-03-26T09:04:57.393Z,51.17
2018-03-26T09:07:28.692Z,51.47
2018-03-26T09:09:59.632Z,53.57
2018-03-26T09:12:30.548Z,59.53
2018-03-26T09:15:01.393Z,55.37
2018-03-26T09:17:32.111Z,54.67
2018-03-26T09:20:03.316Z,56.63
2018-03-26T09:22:33.458Z,53.23
2018-03-26T09:25:04.960Z,60.67
2018-03-26T09:27:36.040Z,59.90
2018-03-26T09:30:07.220Z,52.50
2018-03-26T09:32:38.158Z,58.77
2018-03-26T09:35:08.453Z,59.83
2018-03-26T09:37:39.076Z,54.33
2018-03-26T09:40:09.844Z,52.67
2018-03-26T09:42:40.185Z,51.07
2018-03-26T09:45:10.393Z,55.57
2018-03-26T09:47:40.773Z,54.33
2018-03-26T09:50:11.591Z,52.10
2018-03-26T09:52:42.543Z,56.63
2018-03-26T09:55:13.106Z,58.77
2018-03-26T09:57:44.272Z,57.10
2018-03-26T10:00:17.576Z,62.40
2018-03-26T10:02:48.402Z,61.67
2018-03-26T10:05:18.922Z,57.47
2018-03-26T10:07:49.638Z,59.17
2018-03-26T10:10:20.291Z,61.07
2018-03-26T10:12:50.928Z,60.70
2018-03-26T10:15:21.566Z,57.33
2018-03-26T10:17:52.192Z,51.83
2018-03-26T10:20:22.993Z,52.60
2018-03-26T10:22:53.248Z,50.53
2018-03-26T10:25:23.773Z,50.63
2018-03-26T10:27:55.437Z,53.63
2018-03-26T10:30:26.166Z,50.77
2018-03-26T10:32:57.351Z,56.43
2018-03-26T10:35:27.838Z,55.77
2018-03-26T10:37:59.194Z,60.67
2018-03-26T10:40:30.128Z,65.50
2018-03-26T10:43:00.870Z,64.57
2018-03-26T10:45:31.391Z,60.83
2018-03-26T10:48:02.023Z,65.37
2018-03-26T10:50:31.940Z,70.53
2018-03-26T10:53:02.877Z,71.70
2018-03-26T10:55:33.836Z,71.83
2018-03-26T10:58:04.796Z,70.47
2018-03-26T11:00:35.278Z,73.67
2018-03-26T11:03:05.947Z,67.60
2018-03-26T11:05:37.330Z,69.33
2018-03-26T11:08:07.852Z,73.53
2018-03-26T11:10:38.545Z,91.67
2018-03-26T11:13:09.482Z,86.27
2018-03-26T11:15:40.070Z,85.60
2018-03-26T11:18:10.514Z,77.50
2018-03-26T11:20:41.461Z,74.37
2018-03-26T11:23:12.312Z,78.30
2018-03-26T11:25:42.911Z,86.13
2018-03-26T11:28:12.753Z,82.87
2018-03-26T11:30:43.468Z,93.57
2018-03-26T11:33:14.071Z,77.27
2018-03-26T11:35:44.746Z,83.93
2018-03-26T11:38:15.739Z,96.97
2018-03-26T11:40:46.156Z,87.93
2018-03-26T11:43:16.804Z,76.10
2018-03-26T11:45:47.084Z,78.63
2018-03-26T11:48:17.859Z,64.37
2018-03-26T11:50:48.229Z,71.50
2018-03-26T11:53:19.177Z,80.03
2018-03-26T11:55:49.946Z,84.53
2018-03-26T11:58:20.617Z,80.27
2018-03-26T12:00:51.585Z,84.53
2018-03-26T12:03:23.642Z,95.07
2018-03-26T12:05:53.918Z,96.53
2018-03-26T12:08:24.476Z,77.90
2018-03-26T12:10:55.218Z,89.10
2018-03-26T12:13:25.858Z,81.83
2018-03-26T12:15:56.942Z,77.30
2018-03-26T12:18:27.472Z,70.80
2018-03-26T12:21:01.808Z,84.63
2018-03-26T12:23:43.988Z,80.53
2018-03-26T12:26:14.261Z,82.37
2018-03-26T12:28:56.472Z,87.63
2018-03-26T12:31:27.439Z,86.93
2018-03-26T12:34:09.508Z,87.50
2018-03-26T12:36:39.797Z,84.90
2018-03-26T12:39:10.641Z,88.00
2018-03-26T12:41:41.295Z,97.57
2018-03-26T12:44:11.856Z,79.83
2018-03-26T12:46:46.178Z,85.10
2018-03-26T12:49:16.568Z,82.13
2018-03-26T12:51:58.690Z,95.40
2018-03-26T12:54:28.704Z,87.70
2018-03-26T12:57:10.599Z,86.77
2018-03-26T12:59:41.456Z,96.87
2018-03-26T13:02:23.022Z,94.37
2018-03-26T13:04:53.839Z,87.20
2018-03-26T13:07:25.212Z,92.57
2018-03-26T13:09:55.819Z,89.47
2018-03-26T13:12:26.156Z,91.63
2018-03-26T13:14:56.402Z,81.03
2018-03-26T13:17:27.164Z,90.03
2018-03-26T13:19:57.846Z,86.37
2018-03-26T13:22:28.687Z,74.50
2018-03-26T13:24:59.599Z,72.17
2018-03-26T13:27:30.441Z,76.03
2018-03-26T13:30:00.769Z,74.53
2018-03-26T13:32:31.577Z,81.47
2018-03-26T13:35:02.622Z,67.33
2018-03-26T13:37:34.169Z,71.70
2018-03-26T13:40:05.562Z,77.17
2018-03-26T13:42:35.740Z,79.03
2018-03-26T13:45:06.015Z,74.83
2018-03-26T13:47:36.434Z,86.63
2018-03-26T13:50:07.041Z,77.93
2018-03-26T13:52:37.384Z,73.67
2018-03-26T13:55:08.234Z,72.77
2018-03-26T13:57:39.021Z,70.67
2018-03-26T14:00:10.096Z,70.30
2018-03-26T14:02:40.737Z,70.63
2018-03-26T14:05:11.118Z,68.83
2018-03-26T14:07:42.181Z,70.10
2018-03-26T14:10:24.327Z,67.27
2018-03-26T14:13:06.007Z,74.73
2018-03-26T14:15:48.354Z,74.43
2018-03-26T14:18:19.138Z,61.47
2018-03-26T14:20:49.775Z,71.63
2018-03-26T14:23:20.523Z,71.50
2018-03-26T14:25:51.147Z,83.57
2018-03-26T14:28:21.978Z,66.30
2018-03-26T14:30:52.311Z,66.53
2018-03-26T14:33:22.828Z,64.70
2018-03-26T14:35:52.963Z,73.07
2018-03-26T14:38:23.899Z,65.93
2018-03-26T14:40:54.412Z,72.20
2018-03-26T14:43:25.280Z,73.90
2018-03-26T14:45:56.483Z,73.17
2018-03-26T14:48:27.497Z,58.40
2018-03-26T14:50:58.336Z,99.57
2018-03-26T14:53:29.211Z,104.87
2018-03-26T14:56:00.753Z,101.40
2018-03-26T14:58:31.777Z,91.47
2018-03-26T15:01:02.680Z,94.10
2018-03-26T15:03:34.200Z,98.63
2018-03-26T15:06:05.318Z,85.70
2018-03-26T15:08:35.462Z,88.30
2018-03-26T15:11:06.611Z,64.50
2018-03-26T15:13:37.613Z,88.33
2018-03-26T15:16:07.968Z,68.77
2018-03-26T15:18:38.295Z,100.00
2018-03-26T15:21:09.234Z,70.70
2018-03-26T15:23:40.051Z,77.17
2018-03-26T15:26:11.267Z,84.80
2018-03-26T15:28:42.508Z,75.63
2018-03-26T15:31:13.630Z,86.00
2018-03-26T15:33:43.982Z,102.50
2018-03-26T15:36:14.565Z,89.00
2018-03-26T15:38:45.622Z,100.20
2018-03-26T15:41:16.925Z,93.67
2018-03-26T15:43:47.685Z,112.77
2018-03-26T15:46:18.847Z,94.77
2018-03-26T15:48:48.737Z,106.67
2018-03-26T15:51:19.295Z,81.43
2018-03-26T15:53:49.706Z,88.63
2018-03-26T15:56:20.047Z,92.73
2018-03-26T15:58:50.761Z,93.37
2018-03-26T16:01:21.451Z,102.60
2018-03-26T16:03:52.392Z,109.83
2018-03-26T16:06:22.922Z,104.20
2018-03-26T16:08:53.549Z,94.17
2018-03-26T16:11:24.207Z,75.73
2018-03-26T16:13:54.040Z,105.27
2018-03-26T16:16:24.873Z,115.60
2018-03-26T16:18:55.782Z,96.47
2018-03-26T16:21:27.214Z,87.23
2018-03-26T16:23:57.898Z,85.83
2018-03-26T16:26:29.019Z,106.07
2018-03-26T16:29:00.142Z,96.30
2018-03-26T16:31:30.903Z,92.87
2018-03-26T16:34:01.540Z,87.03
2018-03-26T16:36:31.512Z,99.57
2018-03-26T16:39:02.095Z,97.83
2018-03-26T16:41:44.305Z,95.77
2018-03-26T16:44:15.423Z,88.53
2018-03-26T16:46:46.261Z,76.83
2018-03-26T16:49:17.349Z,73.23
2018-03-26T16:51:47.900Z,78.90
2018-03-26T16:54:18.780Z,86.17
2018-03-26T16:56:50.012Z,83.13
2018-03-26T16:59:21.114Z,82.70
2018-03-26T17:01:51.870Z,80.20
2018-03-26T17:04:22.873Z,77.37
2018-03-26T17:06:53.873Z,74.23
2018-03-26T17:09:24.590Z,67.77
2018-03-26T17:11:55.906Z,75.53
2018-03-26T17:14:26.770Z,63.87
2018-03-26T17:16:58.516Z,68.93
2018-03-26T17:19:28.385Z,75.73
2018-03-26T17:21:59.659Z,67.17
2018-03-26T17:24:30.199Z,72.67
2018-03-26T17:27:01.064Z,73.87
2018-03-26T17:29:32.011Z,68.17
2018-03-26T17:32:03.134Z,70.43
2018-03-26T17:34:34.415Z,57.50
2018-03-26T17:37:05.132Z,77.77
2018-03-26T17:39:35.579Z,60.50
2018-03-26T17:42:07.588Z,64.87
2018-03-26T17:44:38.102Z,59.53
2018-03-26T17:47:09.457Z,52.20
2018-03-26T17:49:40.133Z,60.77
2018-03-26T17:52:11.226Z,59.73
2018-03-26T17:54:42.465Z,61.93
2018-03-26T17:57:13.312Z,62.43
2018-03-26T17:59:44.521Z,75.30
2018-03-26T18:02:15.767Z,67.53
2018-03-26T18:04:46.404Z,62.33
2018-03-26T18:07:17.241Z,75.40
2018-03-26T18:09:48.515Z,57.47
2018-03-26T18:12:19.134Z,58.60
2018-03-26T18:14:49.952Z,56.13
2018-03-26T18:17:20.483Z,56.80
2018-03-26T18:19:50.918Z,61.53
2018-03-26T18:22:20.897Z,55.50
2018-03-26T18:24:52.147Z,55.80
2018-03-26T18:27:23.005Z,61.23
2018-03-26T18:29:53.745Z,57.77
2018-03-26T18:32:24.295Z,55.57
2018-03-26T18:34:54.975Z,55.10
2018-03-26T18:37:25.847Z,58.20
2018-03-26T18:39:56.437Z,53.47
2018-03-26T18:42:26.917Z,54.77
2018-03-26T18:44:57.605Z,60.80
2018-03-26T18:47:28.370Z,61.53
2018-03-26T18:49:59.489Z,63.43
2018-03-26T18:52:29.852Z,62.17
2018-03-26T18:55:00.590Z,60.13
2018-03-26T18:57:30.492Z,58.03
2018-03-26T19:00:01.545Z,60.97
2018-03-26T19:02:32.058Z,55.40
2018-03-26T19:05:02.347Z,66.50
2018-03-26T19:07:33.031Z,59.33
2018-03-26T19:10:03.709Z,66.40
2018-03-26T19:12:33.937Z,74.43
2018-03-26T19:15:04.458Z,72.70
2018-03-26T19:17:34.515Z,69.73
2018-03-26T19:20:05.261Z,88.10
2018-03-26T19:22:35.782Z,79.87
2018-03-26T19:25:06.636Z,87.13
2018-03-26T19:27:37.365Z,91.40
2018-03-26T19:30:07.993Z,87.93
2018-03-26T19:32:38.843Z,84.30
2018-03-26T19:35:09.765Z,64.60
2018-03-26T19:37:40.612Z,77.57
2018-03-26T19:40:11.594Z,81.23
2018-03-26T19:42:41.826Z,80.03
2018-03-26T19:45:12.083Z,83.13
2018-03-26T19:47:42.823Z,82.93
2018-03-26T19:50:13.615Z,87.43
2018-03-26T19:52:44.603Z,78.23
2018-03-26T19:55:15.007Z,91.43
2018-03-26T19:57:45.346Z,92.57
2018-03-26T20:00:16.350Z,84.17
2018-03-26T20:02:47.441Z,84.00
2018-03-26T20:05:17.639Z,86.60
2018-03-26T20:07:48.662Z,85.27
2018-03-26T20:10:19.398Z,80.90
2018-03-26T20:12:50.332Z,82.80
2018-03-26T20:15:21.313Z,83.97
2018-03-26T20:17:52.150Z,82.57
2018-03-26T20:20:22.886Z,79.97
2018-03-26T20:22:54.029Z,87.57
2018-03-26T20:25:24.617Z,88.47
2018-03-26T20:27:55.613Z,78.70
2018-03-26T20:30:26.622Z,82.07
2018-03-26T20:32:57.129Z,71.33
2018-03-26T20:35:28.483Z,66.30
2018-03-26T20:37:59.299Z,66.83
2018-03-26T20:40:30.083Z,69.23
2018-03-26T20:43:00.911Z,76.13
2018-03-26T20:45:31.814Z,68.83
2018-03-26T20:48:02.742Z,70.63
2018-03-26T20:50:33.083Z,79.77
2018-03-26T20:53:03.631Z,67.93
2018-03-26T20:55:34.376Z,60.70
2018-03-26T20:58:04.825Z,60.27
2018-03-26T21:00:35.702Z,58.77
2018-03-26T21:03:06.182Z,64.93
2018-03-26T21:05:36.799Z,52.00
2018-03-26T21:08:07.428Z,64.07
2018-03-26T21:10:38.579Z,58.37
2018-03-26T21:13:09.684Z,67.30
2018-03-26T21:15:40.269Z,64.10
2018-03-26T21:18:11.152Z,62.43
2018-03-26T21:20:41.236Z,64.10
2018-03-26T21:23:11.830Z,62.17
2018-03-26T21:25:42.468Z,73.17
2018-03-26T21:28:13.317Z,73.27
2018-03-26T21:30:45.428Z,70.73
2018-03-26T21:33:15.959Z,75.57
2018-03-26T21:35:46.747Z,80.63
2018-03-26T21:38:17.369Z,66.17
2018-03-26T21:40:48.016Z,70.03
2018-03-26T21:43:17.911Z,76.53
2018-03-26T21:45:48.355Z,76.37
2018-03-26T21:48:19.785Z,71.97
2018-03-26T21:50:52.274Z,81.50
2018-03-26T21:53:23.079Z,66.53
2018-03-26T21:55:53.216Z,69.37
2018-03-26T21:58:24.163Z,70.17
2018-03-26T22:00:54.770Z,68.40
2018-03-26T22:03:25.582Z,67.43
2018-03-26T22:05:57.153Z,63.30
2018-03-26T22:08:27.711Z,69.07
2018-03-26T22:10:58.936Z,69.87
2018-03-26T22:13:29.080Z,68.80
2018-03-26T22:15:59.419Z,65.80
2018-03-26T22:18:29.311Z,69.07
2018-03-26T22:20:59.720Z,64.03
2018-03-26T22:23:29.979Z,64.07
2018-03-26T22:26:00.423Z,64.33
2018-03-26T22:28:31.224Z,65.30
2018-03-26T22:31:02.061Z,68.27
2018-03-26T22:33:33.136Z,64.20
2018-03-26T22:36:03.135Z,60.27
2018-03-26T22:38:33.055Z,61.80
2018-03-26T22:41:03.541Z,68.20
2018-03-26T22:43:34.082Z,62.33
2018-03-26T22:46:04.909Z,54.23
2018-03-26T22:48:35.449Z,58.03
2018-03-26T22:51:06.181Z,58.37
2018-03-26T22:53:36.625Z,53.17
2018-03-26T22:56:07.265Z,57.90
2018-03-26T22:58:37.884Z,54.40
2018-03-26T23:01:07.693Z,40.90
2018-03-26T23:03:38.250Z,37.77
2018-03-26T23:06:08.887Z,48.17
2018-03-26T23:08:39.548Z,334.83
2018-03-26T23:11:10.358Z,339.63
2018-03-26T23:13:41.213Z,61.57
2018-03-26T23:16:12.325Z,53.93
2018-03-26T23:18:42.739Z,57.40
2018-03-26T23:21:13.167Z,47.90
2018-03-26T23:23:43.725Z,49.20
2018-03-26T23:26:14.506Z,46.60
2018-03-26T23:28:44.989Z,51.60
2018-03-26T23:31:15.928Z,145.17
2018-03-26T23:33:46.437Z,170.87
2018-03-26T23:36:16.766Z,56.57
2018-03-26T23:38:47.847Z,51.70
2018-03-26T23:41:18.641Z,35.53
2018-03-26T23:43:49.354Z,70.37
2018-03-26T23:46:20.134Z,70.67
2018-03-26T23:48:50.520Z,36.30
2018-03-26T23:51:21.264Z,37.77
2018-03-26T23:53:53.644Z,38.77
2018-03-26T23:56:24.667Z,35.20
2018-03-26T23:58:55.190Z,21.90
